Time;durP1;ratioP1;P1;durP2;ratioP2;P2;SDS_P1;SDS_P2;PMS_P1;PMS_P2;Temp;Humidity;BMP_temperature;BMP_pressure;BME280_temperature;BME280_humidity;BME280_pressure;Samples;Min_cycle;Max_cycle;Signal;HPM_P1;HPM_P2
2023/03/29 00:02:32;;;;;;;19.90;9.20;;;;;;;-3.58;62.33;99198.55;435411;1253;96115;-41
2023/03/29 00:22:47;;;;;;;16.00;8.30;;;;;;;-3.77;62.53;99180.27;435399;1255;107461;-41
2023/03/29 00:32:54;;;;;;;14.70;8.10;;;;;;;-3.72;62.80;99175.09;435471;1251;107715;-41
2023/03/29 00:43:01;;;;;;;23.60;9.80;;;;;;;-3.74;62.84;99167.70;436442;1253;95656;-40
2023/03/29 00:53:12;;;;;;;19.20;10.50;;;;;;;-3.91;62.90;99168.55;436318;1254;96247;-40
2023/03/29 01:03:26;;;;;;;19.10;9.00;;;;;;;-4.03;63.32;99165.02;436947;1254;108375;-41
2023/03/29 01:13:33;;;;;;;18.70;7.90;;;;;;;-4.15;63.45;99159.45;435974;1248;106731;-40
2023/03/29 01:24:08;;;;;;;23.40;10.40;;;;;;;-4.29;63.72;99154.03;435309;1257;108547;-41
2023/03/29 01:34:17;;;;;;;26.50;13.30;;;;;;;-4.46;63.89;99145.45;435069;1257;96498;-41
2023/03/29 01:44:29;;;;;;;35.70;17.40;;;;;;;-4.57;64.06;99141.46;435306;1254;96190;-41
2023/03/29 01:54:40;;;;;;;18.70;10.30;;;;;;;-4.68;64.07;99133.23;435082;1258;110706;-40
2023/03/29 02:04:53;;;;;;;13.70;7.00;;;;;;;-4.67;64.09;99128.36;435088;1253;108342;-41
2023/03/29 02:15:00;;;;;;;12.50;7.80;;;;;;;-4.58;64.43;99132.95;435399;1255;95567;-41
2023/03/29 02:25:07;;;;;;;13.80;8.00;;;;;;;-4.56;64.36;99134.56;435080;1258;107612;-40
2023/03/29 02:35:17;;;;;;;14.70;7.80;;;;;;;-4.57;64.54;99138.26;435285;1254;106707;-40
2023/03/29 02:45:26;;;;;;;11.60;6.70;;;;;;;-4.40;64.95;99138.91;435334;1254;95301;-39
2023/03/29 02:55:35;;;;;;;16.00;8.20;;;;;;;-4.36;64.86;99143.10;435061;1254;109621;-39
2023/03/29 03:15:53;;;;;;;15.90;9.90;;;;;;;-4.55;64.86;99144.46;435897;1256;97026;-41
2023/03/29 03:26:00;;;;;;;20.30;10.60;;;;;;;-4.62;65.02;99141.77;435081;1267;108145;-40
2023/03/29 03:36:09;;;;;;;26.80;13.40;;;;;;;-4.72;65.26;99136.68;435106;1256;108398;-40
2023/03/29 03:46:17;;;;;;;27.90;14.60;;;;;;;-4.72;65.52;99136.52;435040;1254;387317;-40
2023/03/29 03:56:28;;;;;;;31.60;14.50;;;;;;;-4.82;65.66;99140.06;435412;1254;109740;-42
2023/03/29 04:06:36;;;;;;;27.20;14.40;;;;;;;-4.83;65.89;99138.38;435153;1256;108605;-40
2023/03/29 04:16:41;;;;;;;42.60;18.80;;;;;;;-4.87;66.01;99138.41;435133;1257;96186;-40
2023/03/29 04:26:49;;;;;;;34.00;15.50;;;;;;;-4.96;66.05;99135.80;435287;1254;107750;-42
2023/03/29 04:36:57;;;;;;;34.70;16.00;;;;;;;-5.07;66.33;99139.52;435026;1267;96598;-40
2023/03/29 04:47:04;;;;;;;32.20;16.20;;;;;;;-5.17;66.53;99143.16;435107;1253;107720;-40
2023/03/29 04:57:12;;;;;;;52.90;24.90;;;;;;;-5.20;66.82;99150.23;435125;1252;109492;-41
2023/03/29 05:07:19;;;;;;;43.20;23.80;;;;;;;-5.04;66.99;99152.08;435164;1257;95498;-41
2023/03/29 05:17:26;;;;;;;67.10;36.10;;;;;;;-4.67;67.28;99142.85;436246;1257;111454;-41
2023/03/29 05:27:34;;;;;;;63.50;30.50;;;;;;;-3.95;67.59;99138.75;436000;1256;108962;-42
2023/03/29 05:37:41;;;;;;;73.40;31.60;;;;;;;-2.15;68.12;99135.00;435163;1256;95801;-41
2023/03/29 05:47:48;;;;;;;76.00;32.00;;;;;;;-0.49;67.41;99133.64;435193;1256;108358;-40
2023/03/29 05:57:56;;;;;;;57.40;27.40;;;;;;;0.59;66.48;99128.52;435082;1267;110010;-40
2023/03/29 06:08:03;;;;;;;59.30;25.60;;;;;;;1.38;65.44;99122.89;435120;1256;107520;-41
2023/03/29 06:18:11;;;;;;;65.90;28.10;;;;;;;2.18;64.48;99124.16;435106;1256;95306;-40
2023/03/29 06:28:19;;;;;;;72.60;32.20;;;;;;;3.28;63.78;99116.79;435053;1253;95454;-41
2023/03/29 06:48:32;;;;;;;33.00;15.40;;;;;;;4.62;60.83;99122.67;435369;1256;107172;-39
2023/03/29 06:58:39;;;;;;;38.80;15.50;;;;;;;4.57;59.68;99123.59;435149;1254;109733;-42
2023/03/29 07:08:49;;;;;;;31.20;14.30;;;;;;;5.45;59.20;99116.05;435311;1256;96140;-40
2023/03/29 07:18:56;;;;;;;27.70;12.70;;;;;;;6.06;57.77;99113.13;435289;1253;95291;-41
2023/03/29 07:29:05;;;;;;;15.90;6.40;;;;;;;6.47;56.88;99115.48;435224;1256;108211;-41
2023/03/29 07:39:14;;;;;;;9.60;4.60;;;;;;;6.63;55.14;99109.44;435230;1256;107492;-40
2023/03/29 07:49:20;;;;;;;12.90;4.80;;;;;;;6.26;53.91;99103.96;435287;1256;108676;-40
2023/03/29 07:59:28;;;;;;;9.70;5.60;;;;;;;6.49;53.29;99104.59;435297;1256;96072;-41
2023/03/29 08:09:36;;;;;;;10.10;5.40;;;;;;;6.79;52.54;99108.48;435291;1256;95871;-42
2023/03/29 08:19:43;;;;;;;11.20;5.40;;;;;;;7.02;52.22;99109.05;435110;1256;109523;-41
2023/03/29 08:29:59;;;;;;;9.50;4.60;;;;;;;7.08;50.82;99103.58;435210;1254;109395;-41
2023/03/29 08:40:06;;;;;;;9.10;4.80;;;;;;;7.13;49.68;99092.64;435210;1252;96647;-42
2023/03/29 08:50:14;;;;;;;8.10;4.70;;;;;;;7.20;49.60;99082.06;435144;1256;97452;-42
2023/03/29 09:00:25;;;;;;;5.10;2.70;;;;;;;7.64;49.06;99079.09;435073;1256;109496;-41
2023/03/29 09:10:38;;;;;;;10.80;5.20;;;;;;;7.79;48.21;99064.05;435138;1256;109266;-41
2023/03/29 09:20:44;;;;;;;7.70;4.10;;;;;;;7.49;47.79;99056.50;435003;1256;96607;-41
2023/03/29 09:30:49;;;;;;;5.20;3.40;;;;;;;7.61;47.96;99045.48;435245;1256;97514;-42
2023/03/29 09:41:00;;;;;;;7.10;4.30;;;;;;;7.96;48.37;99039.19;435171;1253;109812;-41
2023/03/29 09:51:10;;;;;;;3.30;2.90;;;;;;;8.36;47.96;99029.58;435131;1252;107798;-42
2023/03/29 10:01:18;;;;;;;7.00;3.00;;;;;;;8.47;47.12;99030.08;435108;1256;97880;-41
2023/03/29 10:11:31;;;;;;;3.60;3.10;;;;;;;8.55;46.34;99024.08;435055;1256;97858;-40
2023/03/29 10:21:39;;;;;;;5.90;3.50;;;;;;;8.65;45.09;99024.48;435186;1256;110903;-42
2023/03/29 10:31:46;;;;;;;7.30;4.10;;;;;;;8.58;44.93;99014.25;435136;1253;108619;-42
2023/03/29 10:41:52;;;;;;;4.20;2.40;;;;;;;8.87;45.27;99011.63;435063;1256;96635;-41
2023/03/29 10:52:00;;;;;;;8.40;3.10;;;;;;;9.07;43.92;99003.11;435045;1256;97878;-41
2023/03/29 11:12:30;;;;;;;8.80;4.80;;;;;;;9.23;42.39;98972.20;435086;1253;107391;-41
2023/03/29 11:22:37;;;;;;;7.20;3.40;;;;;;;9.07;42.16;98963.02;434717;1256;97908;-40
2023/03/29 11:32:46;;;;;;;5.20;3.00;;;;;;;9.10;43.17;98942.05;434983;1256;108948;-42
2023/03/29 11:42:57;;;;;;;4.40;3.00;;;;;;;9.15;43.13;98941.08;434957;1256;109947;-41
2023/03/29 11:53:06;;;;;;;6.00;3.00;;;;;;;9.17;43.27;98930.60;435121;1253;107541;-41
2023/03/29 12:03:21;;;;;;;4.80;2.70;;;;;;;9.07;43.07;98915.44;435017;1256;97836;-41
2023/03/29 12:13:31;;;;;;;2.70;2.20;;;;;;;9.05;43.57;98902.27;435104;1256;110174;-41
2023/03/29 12:23:41;;;;;;;3.80;2.40;;;;;;;9.03;41.71;98893.60;435207;1253;107107;-41
2023/03/29 12:34:15;;;;;;;3.50;2.10;;;;;;;8.71;42.39;98880.28;434998;1256;98428;-42
2023/03/29 12:44:23;;;;;;;3.20;2.00;;;;;;;8.64;41.83;98867.70;435124;1256;97916;-41
2023/03/29 12:54:31;;;;;;;4.10;2.40;;;;;;;8.86;42.84;98856.52;435205;1256;109868;-41
2023/03/29 13:14:46;;;;;;;4.80;2.50;;;;;;;8.90;42.64;98850.30;435168;1253;97498;-41
2023/03/29 13:25:00;;;;;;;7.50;3.30;;;;;;;8.79;42.73;98844.39;435071;1256;97487;-41
2023/03/29 13:45:23;;;;;;;3.70;2.60;;;;;;;8.74;43.29;98829.27;435144;1256;108572;-41
2023/03/29 14:05:47;;;;;;;11.00;4.30;;;;;;;8.86;42.76;98815.00;435147;1256;97483;-42
2023/03/29 14:15:56;;;;;;;19.10;6.80;;;;;;;8.88;42.98;98806.14;435131;1256;110052;-42
2023/03/29 14:26:06;;;;;;;10.40;4.10;;;;;;;9.06;43.55;98794.41;435016;1253;108140;-42
2023/03/29 14:36:17;;;;;;;6.90;4.10;;;;;;;9.00;43.68;98786.75;435083;1256;96635;-40
2023/03/29 14:46:26;;;;;;;12.50;6.30;;;;;;;9.03;43.12;98780.95;435137;1256;97900;-42
2023/03/29 14:56:34;;;;;;;6.90;4.50;;;;;;;8.86;43.35;98775.33;435099;1256;109734;-43
2023/03/29 15:27:04;;;;;;;9.90;3.80;;;;;;;8.65;44.10;98755.16;435361;1256;97904;-40
2023/03/29 15:37:10;;;;;;;6.30;4.10;;;;;;;8.71;44.06;98746.48;435254;1256;110183;-41
2023/03/29 15:47:17;;;;;;;10.80;4.30;;;;;;;8.82;44.52;98734.71;434977;1256;397026;-42
2023/03/29 15:57:25;;;;;;;21.00;9.70;;;;;;;8.69;43.92;98731.61;435147;1256;97587;-41
2023/03/29 16:07:33;;;;;;;14.00;5.70;;;;;;;8.53;44.75;98723.02;435234;1256;96610;-41
2023/03/29 16:17:40;;;;;;;10.00;5.90;;;;;;;8.25;44.99;98723.02;435290;1253;110827;-40
2023/03/29 16:27:48;;;;;;;14.10;7.60;;;;;;;7.93;45.19;98716.27;435194;1257;108041;-41
2023/03/29 16:37:55;;;;;;;20.30;9.40;;;;;;;7.66;45.71;98700.79;435278;1256;97775;-41
2023/03/29 16:48:03;;;;;;;22.50;11.70;;;;;;;7.34;45.91;98706.92;435351;1256;98194;-41
2023/03/29 16:58:12;;;;;;;18.60;10.80;;;;;;;6.97;46.25;98704.49;435317;1256;108922;-46
2023/03/29 17:08:20;;;;;;;32.20;15.30;;;;;;;6.64;46.58;98700.52;435148;1256;108408;-39
2023/03/29 17:18:28;;;;;;;36.10;18.40;;;;;;;6.30;46.94;98705.79;435172;1253;96872;-41
2023/03/29 17:28:35;;;;;;;42.80;20.80;;;;;;;5.97;47.40;98697.55;435997;1253;97883;-40
2023/03/29 17:38:43;;;;;;;47.10;24.90;;;;;;;5.67;47.82;98710.84;435651;1256;109742;-42
2023/03/29 17:48:50;;;;;;;50.10;23.40;;;;;;;5.42;48.11;98721.42;435138;1266;107399;-41
2023/03/29 17:58:58;;;;;;;60.00;25.90;;;;;;;5.18;48.51;98733.18;437033;1256;108389;-40
2023/03/29 18:09:06;;;;;;;59.00;26.20;;;;;;;4.98;49.00;98729.42;436341;1256;97889;-42
2023/03/29 18:19:12;;;;;;;51.30;26.60;;;;;;;4.77;49.37;98736.89;435320;1256;96604;-41
2023/03/29 18:29:20;;;;;;;60.20;27.60;;;;;;;4.59;49.81;98740.37;435196;1256;110764;-41
2023/03/29 18:39:27;;;;;;;53.50;25.60;;;;;;;4.39;50.05;98743.52;435397;1256;107437;-41
2023/03/29 18:49:35;;;;;;;53.40;24.50;;;;;;;4.22;50.54;98745.45;435266;1256;107621;-41
2023/03/29 18:59:42;;;;;;;92.50;44.10;;;;;;;4.08;51.01;98745.35;435299;1256;97861;-40
2023/03/29 19:09:49;;;;;;;70.70;32.10;;;;;;;3.93;51.25;98736.33;435339;1256;110673;-41
2023/03/29 19:19:57;;;;;;;61.90;28.70;;;;;;;3.77;51.73;98744.43;435187;1256;107858;-41
2023/03/29 19:30:05;;;;;;;59.10;26.80;;;;;;;3.61;51.82;98748.02;435227;1257;96578;-41
2023/03/29 19:40:12;;;;;;;54.10;27.00;;;;;;;3.44;52.17;98745.58;435145;1256;109428;-41
2023/03/29 20:10:30;;;;;;;57.30;24.50;;;;;;;3.09;53.31;98698.64;435343;1256;98018;-41
2023/03/29 20:20:38;;;;;;;48.00;22.10;;;;;;;3.01;53.54;98688.23;436014;1257;111479;-40
2023/03/29 20:30:49;;;;;;;41.40;20.10;;;;;;;2.94;53.83;98698.80;435644;1266;110122;-41
2023/03/29 20:40:57;;;;;;;45.00;19.20;;;;;;;2.84;54.04;98697.55;435269;1257;97967;-41
2023/03/29 21:11:19;;;;;;;32.60;13.60;;;;;;;2.94;55.13;98685.93;435385;1256;106695;-41
2023/03/29 21:21:28;;;;;;;24.60;12.00;;;;;;;3.11;55.43;98676.12;435309;1257;97493;-40
2023/03/29 21:31:36;;;;;;;29.80;12.60;;;;;;;3.22;55.68;98661.98;435315;1257;98408;-41
2023/03/29 21:41:43;;;;;;;27.50;12.10;;;;;;;3.24;55.83;98661.85;435377;1253;111854;-40
2023/03/29 21:51:51;;;;;;;25.10;11.30;;;;;;;3.31;56.22;98663.06;435236;1257;107879;-41
2023/03/29 22:01:58;;;;;;;28.80;11.70;;;;;;;3.46;56.38;98662.33;435071;1257;97903;-40
2023/03/29 22:12:05;;;;;;;29.30;11.20;;;;;;;3.54;56.71;98655.63;435174;1256;97495;-41
2023/03/29 22:22:15;;;;;;;23.80;11.10;;;;;;;3.64;56.94;98641.14;435375;1257;110723;-41
2023/03/29 22:32:22;;;;;;;24.30;11.20;;;;;;;3.80;57.36;98619.61;435194;1254;108537;-41
2023/03/29 22:42:30;;;;;;;19.70;10.40;;;;;;;3.92;57.51;98612.64;435210;1257;109376;-41
2023/03/29 22:52:37;;;;;;;16.90;9.20;;;;;;;4.06;57.75;98611.72;435504;1253;97896;-41
2023/03/29 23:02:44;;;;;;;18.10;8.00;;;;;;;4.14;57.94;98606.67;435465;1257;97877;-41
2023/03/29 23:12:52;;;;;;;18.30;8.50;;;;;;;4.21;58.12;98603.30;435323;1257;110616;-41
2023/03/29 23:23:00;;;;;;;18.30;8.10;;;;;;;4.26;58.31;98596.99;435357;1254;108168;-41
2023/03/29 23:33:09;;;;;;;21.60;8.20;;;;;;;4.31;58.54;98596.15;435347;1257;97867;-42
2023/03/29 23:43:16;;;;;;;17.00;7.70;;;;;;;4.35;58.79;98590.45;435293;1254;97873;-42
